Time;durP1;ratioP1;P1;durP2;ratioP2;P2;SDS_P1;SDS_P2;PMS_P1;PMS_P2;Temp;Humidity;BMP_temperature;BMP_pressure;BME280_temperature;BME280_humidity;BME280_pressure;Samples;Min_cycle;Max_cycle;Signal;HPM_P1;HPM_P2
2021/11/12 00:03:47;;;;;;;43.55;14.27;;;;;;;;;;5061671;28;20048;-57
2021/11/12 00:14:36;;;;;;;35.90;15.15;;;;;;;;;;5018987;28;20048;-56
2021/11/12 00:17:08;;;;;;;35.90;14.68;;;;;;;;;;5039401;28;20029;-58
2021/11/12 00:19:35;;;;;;;39.50;15.23;;;;;;;;;;5042558;28;20115;-57
2021/11/12 00:22:01;;;;;;;38.45;15.88;;;;;;;;;;5050686;28;20043;-57
2021/11/12 00:24:28;;;;;;;44.08;16.00;;;;;;;;;;5062428;28;20175;-57
2021/11/12 00:26:56;;;;;;;40.28;15.07;;;;;;;;;;5054190;28;20132;-55
2021/11/12 00:29:22;;;;;;;40.92;16.13;;;;;;;;;;5039285;28;20030;-57
2021/11/12 00:32:00;;;;;;;38.90;15.10;;;;;;;;;;5045395;28;20040;-57
2021/11/12 00:37:13;;;;;;;35.85;14.63;;;;;;;;;;5044202;28;20055;-58
2021/11/12 00:39:45;;;;;;;39.72;15.23;;;;;;;;;;5060080;28;20059;-55
2021/11/12 00:42:16;;;;;;;39.60;15.20;;;;;;;;;;5050050;28;20037;-54
2021/11/12 00:44:45;;;;;;;46.25;16.45;;;;;;;;;;5040631;28;20444;-55
2021/11/12 00:47:21;;;;;;;41.17;15.75;;;;;;;;;;5044341;28;20033;-55
2021/11/12 00:49:59;;;;;;;39.08;15.02;;;;;;;;;;5059508;28;20048;-56
2021/11/12 00:52:40;;;;;;;44.20;15.30;;;;;;;;;;5060756;28;20088;-57
2021/11/12 00:55:07;;;;;;;41.38;15.75;;;;;;;;;;5064151;28;20081;-57
2021/11/12 00:57:35;;;;;;;41.65;16.48;;;;;;;;;;5064350;28;20152;-58
2021/11/12 01:00:02;;;;;;;44.40;16.10;;;;;;;;;;5042120;28;20044;-58
2021/11/12 01:02:29;;;;;;;41.58;17.05;;;;;;;;;;5045161;28;20114;-56
2021/11/12 01:04:55;;;;;;;45.22;16.95;;;;;;;;;;5047077;28;20080;-56
2021/11/12 01:07:22;;;;;;;44.30;16.00;;;;;;;;;;5070168;28;20133;-57
2021/11/12 01:09:50;;;;;;;43.75;15.70;;;;;;;;;;5067459;28;20056;-58
2021/11/12 01:12:17;;;;;;;44.00;16.95;;;;;;;;;;5052098;28;20049;-54
2021/11/12 01:14:45;;;;;;;41.65;16.05;;;;;;;;;;5062553;28;20052;-56
2021/11/12 01:17:11;;;;;;;33.15;14.95;;;;;;;;;;5063640;28;20045;-56
2021/11/12 01:19:38;;;;;;;40.58;15.65;;;;;;;;;;5061878;28;20051;-58
2021/11/12 01:22:06;;;;;;;40.72;17.63;;;;;;;;;;5060450;28;20069;-57
2021/11/12 01:24:35;;;;;;;43.87;15.67;;;;;;;;;;5050167;28;20045;-56
2021/11/12 01:27:02;;;;;;;36.97;14.63;;;;;;;;;;5043143;28;20135;-57
2021/11/12 01:29:28;;;;;;;39.22;15.43;;;;;;;;;;5051681;28;20033;-57
2021/11/12 01:31:58;;;;;;;41.55;15.75;;;;;;;;;;5065590;28;20121;-55
2021/11/12 01:34:24;;;;;;;38.63;15.35;;;;;;;;;;5045473;28;20029;-58
2021/11/12 01:36:53;;;;;;;41.53;15.73;;;;;;;;;;5043154;28;20564;-57
2021/11/12 01:39:21;;;;;;;32.55;14.20;;;;;;;;;;5039638;28;20025;-57
2021/11/12 01:41:51;;;;;;;40.50;16.02;;;;;;;;;;5041036;28;20129;-57
2021/11/12 01:44:27;;;;;;;39.35;14.38;;;;;;;;;;5040822;28;20116;-57
2021/11/12 01:47:08;;;;;;;39.80;15.23;;;;;;;;;;5042443;28;20412;-57
2021/11/12 01:49:37;;;;;;;32.75;14.05;;;;;;;;;;5040977;28;20073;-58
2021/11/12 01:52:10;;;;;;;36.50;14.48;;;;;;;;;;5044941;28;20040;-58
2021/11/12 01:54:51;;;;;;;36.55;14.65;;;;;;;;;;5033194;28;20073;-57
2021/11/12 02:00:15;;;;;;;36.15;14.82;;;;;;;;;;5045150;28;20040;-57
2021/11/12 02:02:42;;;;;;;32.72;14.13;;;;;;;;;;5064143;28;20041;-57
2021/11/12 02:05:11;;;;;;;39.53;14.68;;;;;;;;;;5053328;28;20040;-56
2021/11/12 02:07:37;;;;;;;;;;;;;;;;;;5063852;28;20043;-56
2021/11/12 02:10:06;;;;;;;30.95;12.45;;;;;;;;;;5055457;28;20384;-57
2021/11/12 02:12:42;;;;;;;33.83;14.05;;;;;;;;;;5040621;28;20033;-57
2021/11/12 02:15:09;;;;;;;34.75;14.43;;;;;;;;;;5041769;28;20033;-57
2021/11/12 02:17:38;;;;;;;33.13;13.70;;;;;;;;;;5061566;28;20045;-57
2021/11/12 02:20:10;;;;;;;36.55;14.23;;;;;;;;;;5058191;28;20055;-54
2021/11/12 02:22:39;;;;;;;33.38;13.00;;;;;;;;;;5042486;28;20045;-56
2021/11/12 02:25:08;;;;;;;;;;;;;;;;;;5042521;28;20475;-56
2021/11/12 02:27:40;;;;;;;34.28;12.07;;;;;;;;;;5039279;28;19945;-57
2021/11/12 02:30:07;;;;;;;32.60;12.45;;;;;;;;;;5040405;28;20045;-55
2021/11/12 02:32:35;;;;;;;31.13;13.17;;;;;;;;;;5038048;28;20085;-57
2021/11/12 02:35:04;;;;;;;28.77;12.32;;;;;;;;;;5040888;28;20126;-54
2021/11/12 02:37:32;;;;;;;40.45;14.18;;;;;;;;;;5037639;28;20503;-56
2021/11/12 02:40:00;;;;;;;37.20;12.32;;;;;;;;;;5040965;28;20111;-58
2021/11/12 02:42:27;;;;;;;34.55;12.82;;;;;;;;;;5053292;28;20029;-55
2021/11/12 02:44:55;;;;;;;34.65;13.18;;;;;;;;;;5061234;28;20118;-57
2021/11/12 02:47:23;;;;;;;33.63;12.90;;;;;;;;;;5063494;28;20073;-56
2021/11/12 02:49:52;;;;;;;34.13;13.57;;;;;;;;;;5053860;28;20052;-57
2021/11/12 02:52:19;;;;;;;;;;;;;;;;;;5058346;28;20037;-54
2021/11/12 02:54:47;;;;;;;35.72;11.60;;;;;;;;;;5060981;28;19924;-55
2021/11/12 02:57:14;;;;;;;32.95;13.02;;;;;;;;;;5067827;28;20037;-57
2021/11/12 02:59:41;;;;;;;30.65;12.52;;;;;;;;;;5040785;28;20045;-56
2021/11/12 03:02:08;;;;;;;38.53;13.27;;;;;;;;;;5049562;28;20040;-55
2021/11/12 03:04:35;;;;;;;30.65;12.85;;;;;;;;;;5062886;28;20040;-56
2021/11/12 03:07:02;;;;;;;32.97;12.68;;;;;;;;;;5073825;28;20396;-57
2021/11/12 03:09:29;;;;;;;33.95;13.52;;;;;;;;;;5062060;28;20041;-58
2021/11/12 03:11:56;;;;;;;35.97;12.55;;;;;;;;;;5054565;28;20405;-57
2021/11/12 03:14:24;;;;;;;40.55;12.23;;;;;;;;;;5056968;28;20037;-57
2021/11/12 03:16:51;;;;;;;29.53;11.97;;;;;;;;;;5063254;28;20036;-58
2021/11/12 03:19:19;;;;;;;28.25;11.88;;;;;;;;;;5062565;28;20069;-57
2021/11/12 03:21:48;;;;;;;33.25;11.60;;;;;;;;;;5062003;28;20530;-56
2021/11/12 03:24:18;;;;;;;39.90;12.77;;;;;;;;;;5042096;28;20052;-56
2021/11/12 03:26:50;;;;;;;31.25;12.38;;;;;;;;;;5034546;28;20536;-57
2021/11/12 03:59:58;;;;;;;36.22;14.68;;;;;;;;;;5052849;28;20049;-56
2021/11/12 04:18:55;;;;;;;34.00;13.38;;;;;;;;;;5025640;28;20053;-56
2021/11/12 04:41:32;;;;;;;37.72;14.32;;;;;;;;;;4998975;28;20049;-56
2021/11/12 05:12:01;;;;;;;34.67;12.02;;;;;;;;;;5056636;28;20476;-54
2021/11/12 05:44:38;;;;;;;23.38;10.88;;;;;;;;;;5048242;28;20056;-54
2021/11/12 05:49:42;;;;;;;32.15;11.85;;;;;;;;;;5062661;28;20479;-56
2021/11/12 05:50:04;;;;;;;28.58;12.57;;;;;;;;;;5044749;28;20049;-54
2021/11/12 05:55:15;;;;;;;25.25;9.95;;;;;;;;;;5038455;28;20048;-57
2021/11/12 05:57:41;;;;;;;30.52;11.52;;;;;;;;;;5041494;28;20037;-57
2021/11/12 06:00:12;;;;;;;26.67;11.65;;;;;;;;;;5053933;28;20047;-56
2021/11/12 06:02:38;;;;;;;29.23;11.38;;;;;;;;;;5062766;28;20534;-57
2021/11/12 06:05:05;;;;;;;28.70;11.75;;;;;;;;;;5048300;28;20482;-56
2021/11/12 06:07:34;;;;;;;31.58;11.82;;;;;;;;;;5042921;28;20052;-56
2021/11/12 06:10:01;;;;;;;25.13;11.32;;;;;;;;;;5053999;28;20052;-57
2021/11/12 06:12:27;;;;;;;30.55;10.93;;;;;;;;;;5060641;28;20519;-57
2021/11/12 06:14:54;;;;;;;28.17;9.68;;;;;;;;;;5054677;28;20060;-58
2021/11/12 06:17:22;;;;;;;23.85;10.82;;;;;;;;;;5054519;28;20055;-56
2021/11/12 06:19:48;;;;;;;25.67;10.25;;;;;;;;;;5044946;28;20371;-54
2021/11/12 06:22:21;;;;;;;21.75;9.75;;;;;;;;;;5048498;28;20052;-57
2021/11/12 06:24:47;;;;;;;24.90;11.15;;;;;;;;;;5047112;28;20045;-55
2021/11/12 06:27:14;;;;;;;22.60;10.70;;;;;;;;;;5052223;28;20071;-56
2021/11/12 06:29:42;;;;;;;24.60;10.52;;;;;;;;;;5048143;28;20389;-56
2021/11/12 06:32:09;;;;;;;27.02;10.93;;;;;;;;;;5050337;28;20123;-55
2021/11/12 06:34:37;;;;;;;23.30;9.68;;;;;;;;;;5068446;28;20034;-55
2021/11/12 06:37:04;;;;;;;27.40;10.82;;;;;;;;;;5047921;28;20052;-55
2021/11/12 06:39:31;;;;;;;23.90;10.40;;;;;;;;;;5050413;28;20128;-56
2021/11/12 06:42:02;;;;;;;24.88;9.98;;;;;;;;;;5050207;28;20047;-55
2021/11/12 06:49:59;;;;;;;25.15;9.95;;;;;;;;;;5043886;28;20130;-54
2021/11/12 06:52:27;;;;;;;26.35;10.07;;;;;;;;;;5049947;28;20049;-55
2021/11/12 06:54:54;;;;;;;26.00;11.15;;;;;;;;;;5050521;28;20041;-57
2021/11/12 06:57:21;;;;;;;26.23;10.38;;;;;;;;;;5041338;28;20095;-53
2021/11/12 06:59:48;;;;;;;25.23;10.23;;;;;;;;;;5056366;28;20040;-57
2021/11/12 07:02:16;;;;;;;29.10;11.13;;;;;;;;;;5047311;28;20061;-54
2021/11/12 07:04:42;;;;;;;24.35;10.35;;;;;;;;;;5041931;28;20033;-55
2021/11/12 07:07:10;;;;;;;27.48;10.82;;;;;;;;;;5046057;28;20044;-57
2021/11/12 07:09:38;;;;;;;27.70;11.20;;;;;;;;;;5063143;28;20374;-57
2021/11/12 07:12:05;;;;;;;28.30;10.45;;;;;;;;;;5051851;28;20111;-54
2021/11/12 07:14:31;;;;;;;28.10;10.00;;;;;;;;;;5043163;28;20039;-56
2021/11/12 07:16:58;;;;;;;27.40;9.75;;;;;;;;;;5042459;28;20041;-53
2021/11/12 07:19:24;;;;;;;21.88;9.80;;;;;;;;;;5060923;28;20071;-54
2021/11/12 07:21:52;;;;;;;22.20;9.95;;;;;;;;;;5057712;28;20060;-53
2021/11/12 07:24:21;;;;;;;24.55;10.27;;;;;;;;;;5061673;28;20126;-55
2021/11/12 07:26:47;;;;;;;25.02;10.32;;;;;;;;;;5060498;28;20126;-57
2021/11/12 07:29:14;;;;;;;26.85;10.63;;;;;;;;;;5039437;28;20138;-56
2021/11/12 07:31:41;;;;;;;25.83;10.88;;;;;;;;;;5041398;28;20041;-56
2021/11/12 07:34:08;;;;;;;28.73;9.70;;;;;;;;;;5050243;28;20041;-55
2021/11/12 07:36:37;;;;;;;31.20;9.60;;;;;;;;;;5051121;28;20424;-57
2021/11/12 07:39:06;;;;;;;28.70;9.32;;;;;;;;;;5045955;28;20110;-58
2021/11/12 07:41:54;;;;;;;24.58;8.52;;;;;;;;;;5051833;28;20243;-56
2021/11/12 07:44:35;;;;;;;20.25;8.63;;;;;;;;;;5043635;28;20478;-56
2021/11/12 07:47:02;;;;;;;26.02;10.57;;;;;;;;;;5049346;28;20076;-56
2021/11/12 07:49:29;;;;;;;23.23;9.45;;;;;;;;;;5048131;28;20037;-58
2021/11/12 07:51:56;;;;;;;25.80;10.80;;;;;;;;;;5054759;28;20396;-54
2021/11/12 07:54:22;;;;;;;23.60;10.18;;;;;;;;;;5048382;28;20056;-57
2021/11/12 07:56:51;;;;;;;30.67;10.20;;;;;;;;;;5056215;28;20053;-56
2021/11/12 07:59:18;;;;;;;25.83;9.73;;;;;;;;;;5050474;28;20040;-54
2021/11/12 08:01:44;;;;;;;26.80;10.75;;;;;;;;;;5051898;28;20036;-53
2021/11/12 08:04:11;;;;;;;27.35;9.77;;;;;;;;;;5046061;28;20041;-55
2021/11/12 08:06:38;;;;;;;43.55;10.80;;;;;;;;;;5045375;28;20052;-56
2021/11/12 08:09:06;;;;;;;27.63;10.95;;;;;;;;;;5048446;28;20033;-58
2021/11/12 08:11:40;;;;;;;29.23;12.35;;;;;;;;;;5050591;28;20116;-55
2021/11/12 08:14:11;;;;;;;26.40;11.50;;;;;;;;;;5046692;28;20122;-58
2021/11/12 08:16:50;;;;;;;31.88;11.93;;;;;;;;;;5048965;28;20471;-57
2021/11/12 08:19:18;;;;;;;30.65;12.40;;;;;;;;;;5049224;28;20047;-56
2021/11/12 08:21:57;;;;;;;25.23;10.25;;;;;;;;;;5059434;28;20101;-59
2021/11/12 08:24:34;;;;;;;22.10;10.18;;;;;;;;;;5055319;28;20114;-55
2021/11/12 08:27:07;;;;;;;30.30;10.65;;;;;;;;;;5039549;28;20498;-58
2021/11/12 08:29:50;;;;;;;26.23;10.02;;;;;;;;;;5039968;28;20218;-55
2021/11/12 08:32:29;;;;;;;37.78;11.40;;;;;;;;;;5059234;28;20060;-55
2021/11/12 08:40:30;;;;;;;28.48;12.48;;;;;;;;;;5048326;28;20033;-56
2021/11/12 08:43:01;;;;;;;33.42;11.48;;;;;;;;;;5039089;28;20038;-53
2021/11/12 08:45:30;;;;;;;31.98;11.77;;;;;;;;;;5035800;28;20030;-54
2021/11/12 08:48:00;;;;;;;34.30;12.85;;;;;;;;;;5041628;28;20062;-56
2021/11/12 08:50:28;;;;;;;34.20;12.00;;;;;;;;;;5038479;28;20060;-55
2021/11/12 08:53:03;;;;;;;37.20;12.97;;;;;;;;;;5040296;28;20526;-53
2021/11/12 08:55:32;;;;;;;29.33;12.30;;;;;;;;;;5037420;28;20274;-55
2021/11/12 08:57:59;;;;;;;29.08;13.32;;;;;;;;;;5041014;28;20049;-54
2021/11/12 09:00:26;;;;;;;37.78;12.25;;;;;;;;;;5040125;28;20041;-55
2021/11/12 09:02:54;;;;;;;39.00;13.32;;;;;;;;;;5039504;28;20052;-53
2021/11/12 09:05:23;;;;;;;35.35;14.27;;;;;;;;;;5042769;28;20037;-54
2021/11/12 09:07:50;;;;;;;27.90;11.70;;;;;;;;;;5038104;28;20123;-56
2021/11/12 09:10:18;;;;;;;34.20;13.32;;;;;;;;;;5042788;28;20033;-57
2021/11/12 09:12:47;;;;;;;30.03;11.60;;;;;;;;;;5040238;28;20041;-55
2021/11/12 09:15:21;;;;;;;37.95;14.00;;;;;;;;;;5043139;28;20726;-55
2021/11/12 09:17:48;;;;;;;25.88;10.75;;;;;;;;;;5042157;28;20041;-55
2021/11/12 09:20:16;;;;;;;29.05;12.57;;;;;;;;;;5043223;28;20049;-56
2021/11/12 09:22:43;;;;;;;26.05;10.05;;;;;;;;;;5051274;28;20487;-55
2021/11/12 09:25:11;;;;;;;36.90;13.05;;;;;;;;;;5062881;28;20137;-56
2021/11/12 09:27:37;;;;;;;27.48;11.48;;;;;;;;;;5060390;28;20032;-56
2021/11/12 09:30:04;;;;;;;29.33;10.23;;;;;;;;;;5063524;28;20041;-52
2021/11/12 09:32:31;;;;;;;37.47;12.98;;;;;;;;;;5057169;28;20083;-53
2021/11/12 09:34:58;;;;;;;35.15;12.20;;;;;;;;;;5041913;28;20041;-50
2021/11/12 09:37:28;;;;;;;32.58;12.35;;;;;;;;;;5039254;28;20249;-55
2021/11/12 09:39:57;;;;;;;32.00;12.82;;;;;;;;;;5042338;28;20045;-56
2021/11/12 09:42:25;;;;;;;35.53;12.98;;;;;;;;;;5039818;28;20041;-56
2021/11/12 09:44:51;;;;;;;31.15;11.65;;;;;;;;;;5043382;28;20041;-56
2021/11/12 09:47:23;;;;;;;28.88;12.00;;;;;;;;;;5044273;28;20041;-57
2021/11/12 09:49:50;;;;;;;32.92;12.55;;;;;;;;;;5060625;28;20449;-56
2021/11/12 09:52:17;;;;;;;29.08;10.88;;;;;;;;;;5062580;28;20048;-54
2021/11/12 09:54:45;;;;;;;28.40;11.65;;;;;;;;;;5052470;28;20045;-54
2021/11/12 09:57:12;;;;;;;26.92;9.93;;;;;;;;;;5062897;28;20307;-56
2021/11/12 09:59:39;;;;;;;30.50;11.45;;;;;;;;;;5056118;28;20045;-56
2021/11/12 10:02:07;;;;;;;43.15;13.90;;;;;;;;;;5062409;28;20040;-52
2021/11/12 10:04:34;;;;;;;28.60;12.90;;;;;;;;;;5058418;28;20102;-57
2021/11/12 10:07:01;;;;;;;34.53;12.57;;;;;;;;;;5063218;28;20087;-53
2021/11/12 10:09:27;;;;;;;31.88;13.25;;;;;;;;;;5057024;28;20037;-54
2021/11/12 10:11:59;;;;;;;44.63;13.15;;;;;;;;;;5055474;28;20037;-56
2021/11/12 10:14:35;;;;;;;33.97;12.13;;;;;;;;;;5047435;28;20051;-54
2021/11/12 10:17:02;;;;;;;27.20;11.77;;;;;;;;;;5063653;28;20037;-53
2021/11/12 10:19:28;;;;;;;32.90;12.98;;;;;;;;;;5050460;28;20138;-52
2021/11/12 10:21:57;;;;;;;28.67;12.05;;;;;;;;;;5042282;28;20045;-50
2021/11/12 10:24:27;;;;;;;34.90;12.90;;;;;;;;;;5044090;28;20045;-53
2021/11/12 10:26:55;;;;;;;26.38;10.68;;;;;;;;;;5061904;28;20052;-58
2021/11/12 10:29:24;;;;;;;30.05;11.60;;;;;;;;;;5058418;28;20056;-56
2021/11/12 10:31:54;;;;;;;29.25;12.13;;;;;;;;;;5062787;28;20506;-55
2021/11/12 10:34:22;;;;;;;35.55;12.48;;;;;;;;;;5047148;28;20086;-56
2021/11/12 10:36:52;;;;;;;31.45;11.60;;;;;;;;;;5064778;28;20037;-57
2021/11/12 10:39:26;;;;;;;27.33;10.55;;;;;;;;;;5046235;28;20064;-56
2021/11/12 10:41:53;;;;;;;25.73;11.15;;;;;;;;;;5035736;28;20126;-57
2021/11/12 10:44:20;;;;;;;30.27;12.35;;;;;;;;;;5042215;28;20134;-55
2021/11/12 10:46:48;;;;;;;29.48;11.68;;;;;;;;;;5040540;28;20052;-56
2021/11/12 10:49:39;;;;;;;33.67;12.38;;;;;;;;;;5041191;28;20038;-57
2021/11/12 10:52:08;;;;;;;31.20;11.82;;;;;;;;;;5056323;28;20052;-56
2021/11/12 10:54:57;;;;;;;29.50;10.82;;;;;;;;;;5082483;28;20053;-53
2021/11/12 10:57:27;;;;;;;27.52;11.52;;;;;;;;;;5080195;28;20056;-57
2021/11/12 10:59:59;;;;;;;24.42;10.73;;;;;;;;;;5061987;28;20126;-55
2021/11/12 11:02:28;;;;;;;32.42;11.55;;;;;;;;;;5056806;28;20037;-52
2021/11/12 11:04:57;;;;;;;33.83;12.25;;;;;;;;;;5058817;28;20047;-56
2021/11/12 11:07:24;;;;;;;31.55;13.57;;;;;;;;;;5047658;28;20056;-55
2021/11/12 11:09:52;;;;;;;29.00;11.40;;;;;;;;;;5044892;28;20283;-52
2021/11/12 11:12:36;;;;;;;28.63;11.23;;;;;;;;;;5056748;28;20542;-53
2021/11/12 11:15:21;;;;;;;30.35;11.55;;;;;;;;;;5062062;28;20033;-52
2021/11/12 11:18:05;;;;;;;23.85;10.75;;;;;;;;;;5064047;28;20040;-55
2021/11/12 11:20:33;;;;;;;31.63;11.32;;;;;;;;;;5081896;28;20040;-54
2021/11/12 11:23:00;;;;;;;31.92;13.20;;;;;;;;;;5042948;28;20055;-53
2021/11/12 11:25:28;;;;;;;34.35;13.13;;;;;;;;;;5063337;28;20125;-51
2021/11/12 11:27:56;;;;;;;31.00;12.88;;;;;;;;;;5058388;28;20044;-54
2021/11/12 11:30:23;;;;;;;30.13;12.00;;;;;;;;;;5061891;28;20364;-54
2021/11/12 11:32:49;;;;;;;27.67;12.32;;;;;;;;;;5048802;28;20042;-55
2021/11/12 11:35:18;;;;;;;37.83;13.55;;;;;;;;;;5059805;28;20048;-56
2021/11/12 11:37:51;;;;;;;28.15;11.45;;;;;;;;;;5057955;28;20032;-57
2021/11/12 11:40:19;;;;;;;29.40;11.90;;;;;;;;;;5051855;28;20037;-56
2021/11/12 11:42:47;;;;;;;29.98;12.27;;;;;;;;;;5058097;28;20327;-52
2021/11/12 11:45:15;;;;;;;23.73;9.33;;;;;;;;;;5060417;28;20041;-54
2021/11/12 11:47:43;;;;;;;28.55;11.48;;;;;;;;;;5058531;28;20033;-56
2021/11/12 11:50:28;;;;;;;23.45;9.77;;;;;;;;;;5061673;28;20033;-57
2021/11/12 11:52:55;;;;;;;23.38;10.50;;;;;;;;;;5056951;28;20055;-55
2021/11/12 11:55:31;;;;;;;28.95;12.95;;;;;;;;;;5062929;28;20096;-55
2021/11/12 11:58:19;;;;;;;27.60;12.05;;;;;;;;;;5058938;28;20041;-55
2021/11/12 12:00:48;;;;;;;24.63;10.30;;;;;;;;;;5077997;28;20029;-57
2021/11/12 12:03:24;;;;;;;27.35;11.68;;;;;;;;;;5059140;28;20032;-56
2021/11/12 12:06:06;;;;;;;27.05;10.73;;;;;;;;;;5055317;28;20103;-55
2021/11/12 12:08:34;;;;;;;31.75;11.50;;;;;;;;;;5065121;28;20040;-56
2021/11/12 12:11:05;;;;;;;31.60;12.02;;;;;;;;;;5080398;28;20036;-55
2021/11/12 12:13:32;;;;;;;30.27;11.60;;;;;;;;;;5062870;28;20061;-52
2021/11/12 12:16:06;;;;;;;29.70;12.52;;;;;;;;;;5081046;28;20073;-54
2021/11/12 12:18:34;;;;;;;29.65;12.73;;;;;;;;;;5077695;28;20104;-54
2021/11/12 12:33:15;;;;;;;29.67;11.05;;;;;;;;;;5032989;28;20056;-56
2021/11/12 12:36:10;;;;;;;26.25;9.55;;;;;;;;;;5075085;28;20044;-53
2021/11/12 13:23:14;;;;;;;29.42;10.75;;;;;;;;;;5041639;28;20045;-56
2021/11/12 13:25:41;;;;;;;29.48;10.98;;;;;;;;;;5043076;28;20052;-56
2021/11/12 13:28:18;;;;;;;28.95;12.07;;;;;;;;;;5042553;28;20119;-55
2021/11/12 13:30:48;;;;;;;21.85;10.13;;;;;;;;;;5043998;28;20128;-57
2021/11/12 13:33:29;;;;;;;27.92;11.35;;;;;;;;;;5051662;28;20029;-56
2021/11/12 13:35:56;;;;;;;26.60;11.70;;;;;;;;;;5042255;28;20539;-58
2021/11/12 13:38:23;;;;;;;29.80;11.95;;;;;;;;;;5040859;28;20052;-58
2021/11/12 13:40:50;;;;;;;24.83;10.35;;;;;;;;;;5043057;28;20041;-58
2021/11/12 13:43:24;;;;;;;30.13;12.27;;;;;;;;;;5055189;28;20044;-54
2021/11/12 13:45:57;;;;;;;30.67;12.45;;;;;;;;;;5064043;28;20032;-57
2021/11/12 13:48:23;;;;;;;30.00;12.57;;;;;;;;;;5059352;28;20051;-55
2021/11/12 13:50:52;;;;;;;31.65;12.30;;;;;;;;;;5063109;28;20029;-56
2021/11/12 13:53:19;;;;;;;28.45;11.77;;;;;;;;;;5046799;28;20037;-55
2021/11/12 13:55:46;;;;;;;27.02;11.65;;;;;;;;;;5057159;28;20040;-55
2021/11/12 13:58:17;;;;;;;26.55;11.35;;;;;;;;;;5049083;28;20064;-55
2021/11/12 14:00:44;;;;;;;31.52;13.48;;;;;;;;;;5042526;28;20523;-53
2021/11/12 14:03:17;;;;;;;28.25;11.63;;;;;;;;;;5039860;28;20033;-56
2021/11/12 14:05:53;;;;;;;31.83;12.05;;;;;;;;;;5041099;28;20049;-57
2021/11/12 14:08:20;;;;;;;33.40;12.43;;;;;;;;;;5038701;28;20191;-56
2021/11/12 14:10:53;;;;;;;34.00;12.55;;;;;;;;;;5059606;28;20405;-54
2021/11/12 14:13:20;;;;;;;29.17;12.43;;;;;;;;;;5040811;28;20049;-57
2021/11/12 14:15:56;;;;;;;29.33;13.27;;;;;;;;;;5041019;28;20323;-56
2021/11/12 14:18:37;;;;;;;29.02;11.43;;;;;;;;;;5054078;28;20033;-57
2021/11/12 14:21:13;;;;;;;28.55;12.13;;;;;;;;;;5040688;28;20040;-58
2021/11/12 14:24:15;;;;;;;33.55;12.90;;;;;;;;;;5043278;28;20065;-56
2021/11/12 14:26:49;;;;;;;27.50;12.13;;;;;;;;;;5063058;28;20044;-56
2021/11/12 14:29:30;;;;;;;31.25;12.68;;;;;;;;;;5050658;28;20510;-57
2021/11/12 14:32:12;;;;;;;31.08;13.38;;;;;;;;;;5041078;28;20021;-54
2021/11/12 14:35:00;;;;;;;31.27;13.65;;;;;;;;;;5056486;28;20458;-54
2021/11/12 14:37:38;;;;;;;27.17;11.20;;;;;;;;;;5060605;28;20052;-57
2021/11/12 14:40:07;;;;;;;27.23;12.10;;;;;;;;;;5035355;28;20145;-56
2021/11/12 14:45:14;;;;;;;20.30;9.27;;;;;;;;;;5050987;28;20041;-57
2021/11/12 14:47:46;;;;;;;27.05;11.80;;;;;;;;;;5061906;28;20041;-51
2021/11/12 14:50:28;;;;;;;27.85;12.50;;;;;;;;;;5057161;28;20482;-56
2021/11/12 14:53:02;;;;;;;27.77;11.35;;;;;;;;;;5063066;28;20076;-58
2021/11/12 14:55:28;;;;;;;23.80;10.63;;;;;;;;;;5059063;28;20036;-57
2021/11/12 14:57:55;;;;;;;27.95;12.02;;;;;;;;;;5064588;28;20048;-57
2021/11/12 15:00:23;;;;;;;36.13;15.20;;;;;;;;;;5051853;28;20430;-56
2021/11/12 15:02:50;;;;;;;27.55;11.50;;;;;;;;;;5039940;28;20064;-55
2021/11/12 15:05:17;;;;;;;28.48;11.82;;;;;;;;;;5043489;28;20047;-58
2021/11/12 15:07:50;;;;;;;30.55;11.27;;;;;;;;;;5061874;28;20033;-56
2021/11/12 15:10:23;;;;;;;28.55;12.52;;;;;;;;;;5055515;28;20471;-54
2021/11/12 15:12:51;;;;;;;29.10;12.98;;;;;;;;;;5040883;28;20130;-56
2021/11/12 15:15:17;;;;;;;27.23;10.50;;;;;;;;;;5042316;28;20045;-55
2021/11/12 15:17:44;;;;;;;23.50;10.10;;;;;;;;;;5062479;28;20048;-56
2021/11/12 15:20:11;;;;;;;28.63;12.02;;;;;;;;;;5059956;28;20063;-56
2021/11/12 15:22:49;;;;;;;29.20;12.10;;;;;;;;;;5057190;28;20048;-54
2021/11/12 15:25:21;;;;;;;30.08;13.27;;;;;;;;;;5077074;28;20114;-57
2021/11/12 15:28:02;;;;;;;29.48;11.52;;;;;;;;;;5039495;28;20112;-57
2021/11/12 15:30:32;;;;;;;29.50;11.27;;;;;;;;;;5039772;28;20033;-55
2021/11/12 15:33:01;;;;;;;31.60;11.90;;;;;;;;;;5052176;28;20045;-55
2021/11/12 15:35:30;;;;;;;27.33;12.70;;;;;;;;;;5041077;28;20061;-55
2021/11/12 15:38:01;;;;;;;30.23;10.80;;;;;;;;;;5037653;28;20115;-56
2021/11/12 15:40:32;;;;;;;26.80;10.73;;;;;;;;;;5037822;28;20138;-55
2021/11/12 15:43:17;;;;;;;30.25;11.35;;;;;;;;;;5051250;28;20052;-55
2021/11/12 15:46:00;;;;;;;24.42;10.27;;;;;;;;;;5061777;28;20037;-56
2021/11/12 15:48:32;;;;;;;22.48;10.18;;;;;;;;;;5057585;28;20033;-56
2021/11/12 15:51:14;;;;;;;31.30;12.27;;;;;;;;;;5062658;28;20044;-55
2021/11/12 15:53:45;;;;;;;23.90;11.18;;;;;;;;;;5040915;28;20099;-56
2021/11/12 15:56:37;;;;;;;27.65;10.93;;;;;;;;;;5042949;28;20122;-55
2021/11/12 15:59:09;;;;;;;23.02;10.05;;;;;;;;;;5039384;28;20076;-56
2021/11/12 16:07:21;;;;;;;22.60;10.38;;;;;;;;;;5037975;28;20048;-57
2021/11/12 16:12:35;;;;;;;21.27;9.30;;;;;;;;;;5039042;28;20049;-57
2021/11/12 16:15:16;;;;;;;27.20;11.07;;;;;;;;;;5039384;28;20393;-56
2021/11/12 16:17:47;;;;;;;25.88;11.25;;;;;;;;;;5040963;28;20037;-57
2021/11/12 16:25:43;;;;;;;22.52;9.45;;;;;;;;;;5010968;28;20043;-57
2021/11/12 16:28:17;;;;;;;27.10;11.50;;;;;;;;;;5047999;28;20038;-55
2021/11/12 16:30:49;;;;;;;25.45;10.85;;;;;;;;;;5048433;28;20134;-57
2021/11/12 16:33:15;;;;;;;25.13;9.57;;;;;;;;;;5044003;28;20041;-57
2021/11/12 16:35:43;;;;;;;25.60;10.70;;;;;;;;;;5046854;28;20064;-55
2021/11/12 16:38:15;;;;;;;18.08;8.45;;;;;;;;;;5050169;28;20065;-57
2021/11/12 16:40:44;;;;;;;21.60;9.57;;;;;;;;;;5046913;28;20061;-56
2021/11/12 16:43:21;;;;;;;23.30;10.10;;;;;;;;;;5042692;28;20069;-57
2021/11/12 16:46:00;;;;;;;23.50;9.68;;;;;;;;;;5056406;28;20059;-57
2021/11/12 16:48:41;;;;;;;22.20;10.07;;;;;;;;;;5074101;28;20060;-57
2021/11/12 16:54:13;;;;;;;27.02;10.82;;;;;;;;;;5027453;28;20037;-54
2021/11/12 16:59:33;;;;;;;21.73;10.30;;;;;;;;;;5025131;28;20051;-58
2021/11/12 17:02:17;;;;;;;24.60;10.63;;;;;;;;;;5046651;28;20488;-56
2021/11/12 17:04:56;;;;;;;24.40;10.48;;;;;;;;;;5042018;28;20550;-56
2021/11/12 17:07:32;;;;;;;;;;;;;;;;;;5054229;28;20122;-57
2021/11/12 17:10:09;;;;;;;26.20;8.77;;;;;;;;;;5040942;28;19935;-56
2021/11/12 17:12:59;;;;;;;25.70;9.25;;;;;;;;;;5055748;28;20223;-55
2021/11/12 17:15:34;;;;;;;22.98;9.20;;;;;;;;;;5051588;28;20052;-55
2021/11/12 17:21:06;;;;;;;27.95;10.43;;;;;;;;;;5047673;28;20041;-56
2021/11/12 17:48:35;;;;;;;25.73;9.88;;;;;;;;;;5067307;28;20097;-57
2021/11/12 18:01:35;;;;;;;24.70;10.23;;;;;;;;;;5032533;28;20077;-57
2021/11/12 18:02:30;;;;;;;24.08;9.88;;;;;;;;;;5047632;28;20037;-56
2021/11/12 21:45:49;;;;;;;22.63;7.72;;;;;;;;;;5055717;28;20067;-57
2021/11/12 21:48:15;;;;;;;18.98;7.15;;;;;;;;;;5055662;28;20040;-58
2021/11/12 21:50:57;;;;;;;16.25;7.60;;;;;;;;;;5065219;28;20045;-56
2021/11/12 21:53:23;;;;;;;18.95;7.45;;;;;;;;;;5060192;28;20425;-57
2021/11/12 21:55:50;;;;;;;17.42;7.57;;;;;;;;;;5055573;28;20041;-58
2021/11/12 21:58:17;;;;;;;17.90;7.10;;;;;;;;;;5059885;28;20089;-57
2021/11/12 22:00:46;;;;;;;18.88;7.68;;;;;;;;;;5056268;28;20036;-57
2021/11/12 22:03:12;;;;;;;18.98;7.43;;;;;;;;;;5050745;28;20051;-58
2021/11/12 22:05:39;;;;;;;18.92;7.82;;;;;;;;;;5068896;28;20044;-56
2021/11/12 22:08:07;;;;;;;22.05;8.73;;;;;;;;;;5066663;28;20064;-57
2021/11/12 22:10:35;;;;;;;19.70;7.72;;;;;;;;;;5069056;28;20074;-58
2021/11/12 22:13:02;;;;;;;20.58;7.82;;;;;;;;;;5067956;28;20053;-57
2021/11/12 22:15:28;;;;;;;19.55;8.30;;;;;;;;;;5071647;28;20121;-59
2021/11/12 22:17:55;;;;;;;27.92;8.80;;;;;;;;;;5067296;28;20037;-59
2021/11/12 22:20:22;;;;;;;25.70;8.98;;;;;;;;;;5071370;28;20059;-59
2021/11/12 22:22:48;;;;;;;20.92;8.10;;;;;;;;;;5067929;28;20033;-58
2021/11/12 22:25:18;;;;;;;17.70;7.35;;;;;;;;;;5058985;28;20130;-58
2021/11/12 22:27:44;;;;;;;22.88;7.35;;;;;;;;;;5066791;28;20062;-59
2021/11/12 22:30:12;;;;;;;19.50;7.82;;;;;;;;;;5070064;28;20044;-59
2021/11/12 22:32:38;;;;;;;16.65;7.15;;;;;;;;;;5064425;28;20044;-57
2021/11/12 22:35:05;;;;;;;27.48;8.55;;;;;;;;;;5068906;28;20033;-59
2021/11/12 22:37:32;;;;;;;19.40;8.18;;;;;;;;;;5064997;28;20055;-57
2021/11/12 22:39:59;;;;;;;22.60;7.93;;;;;;;;;;5068762;28;20033;-59
2021/11/12 22:42:28;;;;;;;18.23;7.88;;;;;;;;;;5061831;28;20053;-57
2021/11/12 22:44:54;;;;;;;20.05;7.75;;;;;;;;;;5065186;28;20088;-57
2021/11/12 22:47:21;;;;;;;16.45;7.80;;;;;;;;;;5069709;28;20082;-54
2021/11/12 22:49:48;;;;;;;18.95;7.25;;;;;;;;;;5067914;28;20073;-58
2021/11/12 22:52:15;;;;;;;24.67;8.35;;;;;;;;;;5069699;28;20032;-58